sensor_id;sensor_type;location;lat;lon;timestamp;P1;durP1;ratioP1;P2;durP2;ratioP2
72358;SDS011;60317;48.880;-0.862;2023-07-29T00:02:20;1.30;;;1.00;;
72358;SDS011;60317;48.880;-0.862;2023-07-29T00:04:48;1.27;;;0.80;;
72358;SDS011;60317;48.880;-0.862;2023-07-29T00:07:14;1.35;;;0.80;;
72358;SDS011;60317;48.880;-0.862;2023-07-29T00:09:41;0.98;;;0.88;;
72358;SDS011;60317;48.880;-0.862;2023-07-29T00:12:07;0.95;;;0.85;;
72358;SDS011;60317;48.880;-0.862;2023-07-29T00:14:34;1.27;;;0.85;;
72358;SDS011;60317;48.880;-0.862;2023-07-29T00:17:00;1.35;;;0.85;;
72358;SDS011;60317;48.880;-0.862;2023-07-29T00:19:27;0.70;;;0.70;;
72358;SDS011;60317;48.880;-0.862;2023-07-29T00:21:55;1.15;;;1.02;;
72358;SDS011;60317;48.880;-0.862;2023-07-29T00:24:21;1.35;;;0.82;;
72358;SDS011;60317;48.880;-0.862;2023-07-29T00:26:48;1.42;;;1.05;;
72358;SDS011;60317;48.880;-0.862;2023-07-29T00:29:14;0.63;;;0.63;;
72358;SDS011;60317;48.880;-0.862;2023-07-29T00:31:41;1.42;;;1.00;;
72358;SDS011;60317;48.880;-0.862;2023-07-29T00:34:07;2.38;;;0.98;;
72358;SDS011;60317;48.880;-0.862;2023-07-29T00:36:34;0.82;;;0.82;;
72358;SDS011;60317;48.880;-0.862;2023-07-29T00:39:02;1.25;;;0.90;;
72358;SDS011;60317;48.880;-0.862;2023-07-29T00:41:29;0.82;;;0.80;;
72358;SDS011;60317;48.880;-0.862;2023-07-29T00:43:55;0.85;;;0.77;;
72358;SDS011;60317;48.880;-0.862;2023-07-29T00:46:22;2.28;;;0.73;;
72358;SDS011;60317;48.880;-0.862;2023-07-29T00:48:49;2.03;;;0.90;;
72358;SDS011;60317;48.880;-0.862;2023-07-29T00:51:16;2.10;;;0.85;;
72358;SDS011;60317;48.880;-0.862;2023-07-29T00:53:42;1.02;;;0.75;;
72358;SDS011;60317;48.880;-0.862;2023-07-29T00:56:11;0.70;;;0.70;;
72358;SDS011;60317;48.880;-0.862;2023-07-29T00:58:38;0.85;;;0.70;;
72358;SDS011;60317;48.880;-0.862;2023-07-29T01:01:04;1.38;;;0.73;;
72358;SDS011;60317;48.880;-0.862;2023-07-29T01:03:31;1.55;;;0.90;;
72358;SDS011;60317;48.880;-0.862;2023-07-29T01:06:15;1.20;;;0.77;;
72358;SDS011;60317;48.880;-0.862;2023-07-29T01:08:51;0.95;;;0.65;;
72358;SDS011;60317;48.880;-0.862;2023-07-29T01:11:31;0.80;;;0.70;;
72358;SDS011;60317;48.880;-0.862;2023-07-29T01:14:05;1.58;;;0.80;;
72358;SDS011;60317;48.880;-0.862;2023-07-29T01:16:46;0.60;;;0.60;;
72358;SDS011;60317;48.880;-0.862;2023-07-29T01:19:20;0.65;;;0.65;;
72358;SDS011;60317;48.880;-0.862;2023-07-29T01:21:59;1.90;;;0.70;;
72358;SDS011;60317;48.880;-0.862;2023-07-29T01:24:27;0.70;;;0.70;;
72358;SDS011;60317;48.880;-0.862;2023-07-29T01:26:53;0.82;;;0.70;;
72358;SDS011;60317;48.880;-0.862;2023-07-29T01:29:20;0.50;;;0.50;;
72358;SDS011;60317;48.880;-0.862;2023-07-29T01:31:46;0.85;;;0.70;;
72358;SDS011;60317;48.880;-0.862;2023-07-29T01:34:21;1.30;;;0.75;;
72358;SDS011;60317;48.880;-0.862;2023-07-29T01:36:52;0.70;;;0.65;;
72358;SDS011;60317;48.880;-0.862;2023-07-29T01:39:20;1.55;;;1.00;;
72358;SDS011;60317;48.880;-0.862;2023-07-29T01:41:49;0.80;;;0.73;;
72358;SDS011;60317;48.880;-0.862;2023-07-29T01:44:16;1.42;;;0.75;;
72358;SDS011;60317;48.880;-0.862;2023-07-29T01:46:44;0.95;;;0.65;;
72358;SDS011;60317;48.880;-0.862;2023-07-29T01:49:11;1.13;;;0.73;;
72358;SDS011;60317;48.880;-0.862;2023-07-29T01:51:37;0.73;;;0.70;;
72358;SDS011;60317;48.880;-0.862;2023-07-29T01:54:04;0.60;;;0.60;;
72358;SDS011;60317;48.880;-0.862;2023-07-29T01:56:30;0.80;;;0.68;;
72358;SDS011;60317;48.880;-0.862;2023-07-29T01:58:58;0.93;;;0.70;;
72358;SDS011;60317;48.880;-0.862;2023-07-29T02:01:25;1.17;;;0.80;;
72358;SDS011;60317;48.880;-0.862;2023-07-29T02:03:51;1.15;;;0.70;;
72358;SDS011;60317;48.880;-0.862;2023-07-29T02:06:18;1.38;;;0.88;;
72358;SDS011;60317;48.880;-0.862;2023-07-29T02:08:44;1.25;;;0.90;;
72358;SDS011;60317;48.880;-0.862;2023-07-29T02:11:11;0.88;;;0.70;;
72358;SDS011;60317;48.880;-0.862;2023-07-29T02:13:37;0.50;;;0.50;;
72358;SDS011;60317;48.880;-0.862;2023-07-29T02:16:05;0.93;;;0.80;;
72358;SDS011;60317;48.880;-0.862;2023-07-29T02:18:31;0.60;;;0.60;;
72358;SDS011;60317;48.880;-0.862;2023-07-29T02:20:58;1.33;;;0.80;;
72358;SDS011;60317;48.880;-0.862;2023-07-29T02:23:24;0.73;;;0.60;;
72358;SDS011;60317;48.880;-0.862;2023-07-29T02:25:51;1.02;;;0.50;;
72358;SDS011;60317;48.880;-0.862;2023-07-29T02:28:17;0.70;;;0.70;;
72358;SDS011;60317;48.880;-0.862;2023-07-29T02:30:44;1.75;;;0.65;;
72358;SDS011;60317;48.880;-0.862;2023-07-29T02:33:12;0.68;;;0.68;;
72358;SDS011;60317;48.880;-0.862;2023-07-29T02:35:38;0.80;;;0.77;;
72358;SDS011;60317;48.880;-0.862;2023-07-29T02:38:05;0.60;;;0.60;;
72358;SDS011;60317;48.880;-0.862;2023-07-29T02:40:32;1.05;;;0.52;;
72358;SDS011;60317;48.880;-0.862;2023-07-29T02:42:58;0.68;;;0.50;;
72358;SDS011;60317;48.880;-0.862;2023-07-29T02:45:25;1.10;;;0.88;;
72358;SDS011;60317;48.880;-0.862;2023-07-29T02:47:51;1.08;;;0.65;;
72358;SDS011;60317;48.880;-0.862;2023-07-29T02:50:19;0.70;;;0.70;;
72358;SDS011;60317;48.880;-0.862;2023-07-29T02:52:46;1.08;;;0.70;;
72358;SDS011;60317;48.880;-0.862;2023-07-29T02:55:16;0.50;;;0.45;;
72358;SDS011;60317;48.880;-0.862;2023-07-29T02:57:43;0.82;;;0.80;;
72358;SDS011;60317;48.880;-0.862;2023-07-29T03:00:09;0.50;;;0.50;;
72358;SDS011;60317;48.880;-0.862;2023-07-29T03:02:37;0.70;;;0.70;;
72358;SDS011;60317;48.880;-0.862;2023-07-29T03:05:03;1.67;;;0.60;;
72358;SDS011;60317;48.880;-0.862;2023-07-29T03:07:32;0.75;;;0.65;;
72358;SDS011;60317;48.880;-0.862;2023-07-29T03:09:58;1.23;;;0.70;;
72358;SDS011;60317;48.880;-0.862;2023-07-29T03:12:25;0.65;;;0.65;;
72358;SDS011;60317;48.880;-0.862;2023-07-29T03:14:51;0.60;;;0.60;;
72358;SDS011;60317;48.880;-0.862;2023-07-29T03:17:18;0.93;;;0.65;;
72358;SDS011;60317;48.880;-0.862;2023-07-29T03:19:44;1.25;;;0.77;;
72358;SDS011;60317;48.880;-0.862;2023-07-29T03:22:10;0.88;;;0.70;;
72358;SDS011;60317;48.880;-0.862;2023-07-29T03:24:38;1.15;;;0.80;;
72358;SDS011;60317;48.880;-0.862;2023-07-29T03:27:05;1.05;;;0.50;;
72358;SDS011;60317;48.880;-0.862;2023-07-29T03:29:31;0.65;;;0.65;;
72358;SDS011;60317;48.880;-0.862;2023-07-29T03:31:58;1.05;;;0.70;;
72358;SDS011;60317;48.880;-0.862;2023-07-29T03:34:24;0.70;;;0.63;;
72358;SDS011;60317;48.880;-0.862;2023-07-29T03:36:51;0.55;;;0.55;;
72358;SDS011;60317;48.880;-0.862;2023-07-29T03:39:17;1.00;;;0.70;;
72358;SDS011;60317;48.880;-0.862;2023-07-29T03:41:45;1.13;;;0.70;;
72358;SDS011;60317;48.880;-0.862;2023-07-29T03:44:12;0.70;;;0.70;;
72358;SDS011;60317;48.880;-0.862;2023-07-29T03:46:38;2.78;;;0.70;;
72358;SDS011;60317;48.880;-0.862;2023-07-29T03:49:05;1.00;;;0.57;;
72358;SDS011;60317;48.880;-0.862;2023-07-29T03:51:32;1.02;;;0.57;;
72358;SDS011;60317;48.880;-0.862;2023-07-29T03:53:58;0.93;;;0.65;;
72358;SDS011;60317;48.880;-0.862;2023-07-29T03:56:25;0.70;;;0.65;;
72358;SDS011;60317;48.880;-0.862;2023-07-29T03:58:53;1.17;;;0.45;;
72358;SDS011;60317;48.880;-0.862;2023-07-29T04:01:19;1.95;;;0.70;;
72358;SDS011;60317;48.880;-0.862;2023-07-29T04:03:46;0.75;;;0.73;;
72358;SDS011;60317;48.880;-0.862;2023-07-29T04:06:12;0.43;;;0.43;;
72358;SDS011;60317;48.880;-0.862;2023-07-29T04:08:39;1.23;;;0.80;;
72358;SDS011;60317;48.880;-0.862;2023-07-29T04:11:06;0.70;;;0.70;;
72358;SDS011;60317;48.880;-0.862;2023-07-29T04:13:32;0.60;;;0.60;;
72358;SDS011;60317;48.880;-0.862;2023-07-29T04:16:00;1.73;;;0.80;;
72358;SDS011;60317;48.880;-0.862;2023-07-29T04:18:27;0.63;;;0.60;;
72358;SDS011;60317;48.880;-0.862;2023-07-29T04:20:53;2.13;;;0.70;;
72358;SDS011;60317;48.880;-0.862;2023-07-29T04:23:20;1.27;;;0.68;;
72358;SDS011;60317;48.880;-0.862;2023-07-29T04:25:46;1.35;;;0.65;;
72358;SDS011;60317;48.880;-0.862;2023-07-29T04:28:13;0.55;;;0.45;;
72358;SDS011;60317;48.880;-0.862;2023-07-29T04:30:39;1.48;;;0.80;;
72358;SDS011;60317;48.880;-0.862;2023-07-29T04:33:07;1.10;;;0.68;;
72358;SDS011;60317;48.880;-0.862;2023-07-29T04:35:33;2.60;;;0.70;;
72358;SDS011;60317;48.880;-0.862;2023-07-29T04:38:00;1.63;;;0.65;;
72358;SDS011;60317;48.880;-0.862;2023-07-29T04:40:26;1.95;;;0.88;;
72358;SDS011;60317;48.880;-0.862;2023-07-29T04:42:53;1.52;;;0.77;;
72358;SDS011;60317;48.880;-0.862;2023-07-29T04:45:20;1.30;;;0.70;;
72358;SDS011;60317;48.880;-0.862;2023-07-29T04:47:46;3.17;;;0.75;;
72358;SDS011;60317;48.880;-0.862;2023-07-29T04:50:14;0.82;;;0.60;;
72358;SDS011;60317;48.880;-0.862;2023-07-29T04:52:40;0.55;;;0.50;;
72358;SDS011;60317;48.880;-0.862;2023-07-29T04:55:07;1.13;;;0.52;;
72358;SDS011;60317;48.880;-0.862;2023-07-29T04:57:34;2.33;;;0.75;;
72358;SDS011;60317;48.880;-0.862;2023-07-29T05:00:02;0.93;;;0.90;;
72358;SDS011;60317;48.880;-0.862;2023-07-29T05:02:29;0.70;;;0.50;;
72358;SDS011;60317;48.880;-0.862;2023-07-29T05:04:55;1.80;;;0.77;;
72358;SDS011;60317;48.880;-0.862;2023-07-29T05:07:23;2.30;;;0.88;;
72358;SDS011;60317;48.880;-0.862;2023-07-29T05:09:50;2.03;;;0.85;;
72358;SDS011;60317;48.880;-0.862;2023-07-29T05:12:16;0.90;;;0.60;;
72358;SDS011;60317;48.880;-0.862;2023-07-29T05:14:43;0.90;;;0.90;;
72358;SDS011;60317;48.880;-0.862;2023-07-29T05:17:09;1.27;;;0.85;;
72358;SDS011;60317;48.880;-0.862;2023-07-29T05:19:36;0.70;;;0.70;;
72358;SDS011;60317;48.880;-0.862;2023-07-29T05:22:02;0.63;;;0.63;;
72358;SDS011;60317;48.880;-0.862;2023-07-29T05:24:31;1.40;;;0.68;;
72358;SDS011;60317;48.880;-0.862;2023-07-29T05:26:58;0.60;;;0.45;;
72358;SDS011;60317;48.880;-0.862;2023-07-29T05:29:24;2.22;;;0.65;;
72358;SDS011;60317;48.880;-0.862;2023-07-29T05:31:51;1.00;;;0.70;;
72358;SDS011;60317;48.880;-0.862;2023-07-29T05:34:17;0.52;;;0.52;;
72358;SDS011;60317;48.880;-0.862;2023-07-29T05:36:44;1.65;;;0.70;;
72358;SDS011;60317;48.880;-0.862;2023-07-29T05:39:10;1.48;;;0.90;;
72358;SDS011;60317;48.880;-0.862;2023-07-29T05:41:38;0.98;;;0.80;;
72358;SDS011;60317;48.880;-0.862;2023-07-29T05:44:04;1.38;;;0.90;;
72358;SDS011;60317;48.880;-0.862;2023-07-29T05:46:35;2.35;;;1.10;;
72358;SDS011;60317;48.880;-0.862;2023-07-29T05:49:02;1.48;;;0.70;;
72358;SDS011;60317;48.880;-0.862;2023-07-29T05:51:28;1.27;;;0.70;;
72358;SDS011;60317;48.880;-0.862;2023-07-29T05:53:55;0.70;;;0.70;;
72358;SDS011;60317;48.880;-0.862;2023-07-29T05:56:21;0.47;;;0.47;;
72358;SDS011;60317;48.880;-0.862;2023-07-29T05:58:49;0.98;;;0.57;;
72358;SDS011;60317;48.880;-0.862;2023-07-29T06:01:15;1.00;;;0.70;;
72358;SDS011;60317;48.880;-0.862;2023-07-29T06:03:42;0.75;;;0.50;;
72358;SDS011;60317;48.880;-0.862;2023-07-29T06:06:09;2.45;;;0.77;;
72358;SDS011;60317;48.880;-0.862;2023-07-29T06:08:35;1.02;;;0.70;;
72358;SDS011;60317;48.880;-0.862;2023-07-29T06:11:02;1.20;;;0.70;;
72358;SDS011;60317;48.880;-0.862;2023-07-29T06:13:28;1.85;;;0.73;;
72358;SDS011;60317;48.880;-0.862;2023-07-29T06:15:56;1.60;;;0.70;;
72358;SDS011;60317;48.880;-0.862;2023-07-29T06:18:22;1.17;;;0.80;;
72358;SDS011;60317;48.880;-0.862;2023-07-29T06:20:50;1.35;;;0.82;;
72358;SDS011;60317;48.880;-0.862;2023-07-29T06:23:17;0.70;;;0.63;;
72358;SDS011;60317;48.880;-0.862;2023-07-29T06:25:43;0.93;;;0.77;;
72358;SDS011;60317;48.880;-0.862;2023-07-29T06:28:10;1.85;;;0.70;;
72358;SDS011;60317;48.880;-0.862;2023-07-29T06:30:36;0.75;;;0.70;;
72358;SDS011;60317;48.880;-0.862;2023-07-29T06:33:04;0.82;;;0.75;;
72358;SDS011;60317;48.880;-0.862;2023-07-29T06:35:31;2.38;;;0.80;;
72358;SDS011;60317;48.880;-0.862;2023-07-29T06:37:58;0.70;;;0.70;;
72358;SDS011;60317;48.880;-0.862;2023-07-29T06:40:24;1.20;;;0.75;;
72358;SDS011;60317;48.880;-0.862;2023-07-29T06:42:51;1.58;;;0.85;;
72358;SDS011;60317;48.880;-0.862;2023-07-29T06:45:17;0.70;;;0.70;;
72358;SDS011;60317;48.880;-0.862;2023-07-29T06:47:44;1.13;;;0.80;;
72358;SDS011;60317;48.880;-0.862;2023-07-29T06:50:12;3.47;;;1.00;;
72358;SDS011;60317;48.880;-0.862;2023-07-29T06:52:39;1.25;;;0.90;;
72358;SDS011;60317;48.880;-0.862;2023-07-29T06:55:06;0.70;;;0.70;;
72358;SDS011;60317;48.880;-0.862;2023-07-29T06:57:32;0.90;;;0.77;;
72358;SDS011;60317;48.880;-0.862;2023-07-29T06:59:59;1.00;;;0.80;;
72358;SDS011;60317;48.880;-0.862;2023-07-29T07:02:25;1.33;;;1.00;;
72358;SDS011;60317;48.880;-0.862;2023-07-29T07:04:52;1.70;;;0.80;;
72358;SDS011;60317;48.880;-0.862;2023-07-29T07:07:20;0.93;;;0.80;;
72358;SDS011;60317;48.880;-0.862;2023-07-29T07:09:46;0.60;;;0.60;;
72358;SDS011;60317;48.880;-0.862;2023-07-29T07:12:13;1.63;;;0.82;;
72358;SDS011;60317;48.880;-0.862;2023-07-29T07:14:39;0.93;;;0.80;;
72358;SDS011;60317;48.880;-0.862;2023-07-29T07:17:06;3.22;;;0.90;;
72358;SDS011;60317;48.880;-0.862;2023-07-29T07:19:34;1.15;;;0.90;;
72358;SDS011;60317;48.880;-0.862;2023-07-29T07:22:00;0.80;;;0.80;;
72358;SDS011;60317;48.880;-0.862;2023-07-29T07:24:28;3.17;;;0.85;;
72358;SDS011;60317;48.880;-0.862;2023-07-29T07:26:55;2.15;;;0.73;;
72358;SDS011;60317;48.880;-0.862;2023-07-29T07:29:21;2.00;;;0.93;;
72358;SDS011;60317;48.880;-0.862;2023-07-29T07:31:49;1.75;;;0.90;;
72358;SDS011;60317;48.880;-0.862;2023-07-29T07:34:17;1.33;;;0.90;;
72358;SDS011;60317;48.880;-0.862;2023-07-29T07:36:44;2.22;;;0.80;;
72358;SDS011;60317;48.880;-0.862;2023-07-29T07:39:11;1.15;;;0.93;;
72358;SDS011;60317;48.880;-0.862;2023-07-29T07:41:40;1.05;;;0.80;;
72358;SDS011;60317;48.880;-0.862;2023-07-29T07:44:06;1.40;;;0.90;;
72358;SDS011;60317;48.880;-0.862;2023-07-29T07:46:33;1.73;;;1.05;;
72358;SDS011;60317;48.880;-0.862;2023-07-29T07:49:01;1.40;;;0.85;;
72358;SDS011;60317;48.880;-0.862;2023-07-29T07:51:27;0.80;;;0.80;;
72358;SDS011;60317;48.880;-0.862;2023-07-29T07:53:54;1.50;;;0.85;;
72358;SDS011;60317;48.880;-0.862;2023-07-29T07:56:20;3.38;;;1.13;;
72358;SDS011;60317;48.880;-0.862;2023-07-29T07:58:48;0.90;;;0.90;;
72358;SDS011;60317;48.880;-0.862;2023-07-29T08:01:15;1.67;;;0.93;;
72358;SDS011;60317;48.880;-0.862;2023-07-29T08:03:41;3.20;;;0.80;;
72358;SDS011;60317;48.880;-0.862;2023-07-29T08:06:08;2.05;;;0.85;;
72358;SDS011;60317;48.880;-0.862;2023-07-29T08:08:36;0.77;;;0.70;;
72358;SDS011;60317;48.880;-0.862;2023-07-29T08:11:02;2.05;;;0.98;;
72358;SDS011;60317;48.880;-0.862;2023-07-29T08:13:29;0.65;;;0.65;;
72358;SDS011;60317;48.880;-0.862;2023-07-29T08:15:57;1.45;;;1.10;;
72358;SDS011;60317;48.880;-0.862;2023-07-29T08:18:23;4.72;;;1.08;;
72358;SDS011;60317;48.880;-0.862;2023-07-29T08:20:51;1.00;;;0.80;;
72358;SDS011;60317;48.880;-0.862;2023-07-29T08:23:18;2.90;;;1.00;;
72358;SDS011;60317;48.880;-0.862;2023-07-29T08:25:45;1.50;;;0.88;;
72358;SDS011;60317;48.880;-0.862;2023-07-29T08:28:15;2.20;;;0.88;;
72358;SDS011;60317;48.880;-0.862;2023-07-29T08:30:42;0.80;;;0.70;;
72358;SDS011;60317;48.880;-0.862;2023-07-29T08:33:10;1.10;;;0.77;;
72358;SDS011;60317;48.880;-0.862;2023-07-29T08:35:36;1.48;;;0.90;;
72358;SDS011;60317;48.880;-0.862;2023-07-29T08:38:03;0.80;;;0.80;;
72358;SDS011;60317;48.880;-0.862;2023-07-29T08:40:29;3.33;;;1.00;;
72358;SDS011;60317;48.880;-0.862;2023-07-29T08:42:57;1.63;;;0.95;;
72358;SDS011;60317;48.880;-0.862;2023-07-29T08:45:28;1.20;;;1.00;;
72358;SDS011;60317;48.880;-0.862;2023-07-29T08:47:57;1.33;;;0.82;;
72358;SDS011;60317;48.880;-0.862;2023-07-29T08:50:26;2.00;;;0.90;;
72358;SDS011;60317;48.880;-0.862;2023-07-29T08:52:54;1.05;;;0.73;;
72358;SDS011;60317;48.880;-0.862;2023-07-29T08:55:21;3.65;;;0.82;;
72358;SDS011;60317;48.880;-0.862;2023-07-29T08:57:48;1.63;;;1.05;;
72358;SDS011;60317;48.880;-0.862;2023-07-29T09:00:15;3.00;;;1.00;;
72358;SDS011;60317;48.880;-0.862;2023-07-29T09:02:46;3.95;;;0.80;;
72358;SDS011;60317;48.880;-0.862;2023-07-29T09:05:13;1.95;;;0.85;;
72358;SDS011;60317;48.880;-0.862;2023-07-29T09:07:40;3.60;;;1.10;;
72358;SDS011;60317;48.880;-0.862;2023-07-29T09:10:08;2.60;;;1.15;;
72358;SDS011;60317;48.880;-0.862;2023-07-29T09:12:35;2.45;;;1.27;;
72358;SDS011;60317;48.880;-0.862;2023-07-29T09:15:02;2.40;;;1.00;;
72358;SDS011;60317;48.880;-0.862;2023-07-29T09:17:30;3.13;;;1.10;;
72358;SDS011;60317;48.880;-0.862;2023-07-29T09:19:58;4.30;;;1.30;;
72358;SDS011;60317;48.880;-0.862;2023-07-29T09:22:25;2.55;;;0.90;;
72358;SDS011;60317;48.880;-0.862;2023-07-29T09:24:54;2.80;;;1.40;;
72358;SDS011;60317;48.880;-0.862;2023-07-29T09:27:23;3.40;;;1.10;;
72358;SDS011;60317;48.880;-0.862;2023-07-29T09:29:50;3.88;;;1.27;;
72358;SDS011;60317;48.880;-0.862;2023-07-29T09:32:17;3.75;;;1.30;;
72358;SDS011;60317;48.880;-0.862;2023-07-29T09:34:44;4.03;;;1.20;;
72358;SDS011;60317;48.880;-0.862;2023-07-29T09:37:15;4.32;;;1.40;;
72358;SDS011;60317;48.880;-0.862;2023-07-29T09:39:43;4.45;;;1.58;;
72358;SDS011;60317;48.880;-0.862;2023-07-29T09:42:17;3.25;;;1.30;;
72358;SDS011;60317;48.880;-0.862;2023-07-29T09:47:18;2.85;;;0.93;;
72358;SDS011;60317;48.880;-0.862;2023-07-29T09:49:46;3.38;;;1.30;;
72358;SDS011;60317;48.880;-0.862;2023-07-29T09:52:13;3.05;;;1.20;;
72358;SDS011;60317;48.880;-0.862;2023-07-29T09:54:41;3.20;;;1.20;;
72358;SDS011;60317;48.880;-0.862;2023-07-29T09:57:08;3.70;;;1.38;;
72358;SDS011;60317;48.880;-0.862;2023-07-29T09:59:36;4.65;;;1.17;;
72358;SDS011;60317;48.880;-0.862;2023-07-29T10:02:03;4.30;;;1.58;;
72358;SDS011;60317;48.880;-0.862;2023-07-29T10:04:30;3.88;;;1.25;;
72358;SDS011;60317;48.880;-0.862;2023-07-29T10:06:58;5.03;;;1.60;;
72358;SDS011;60317;48.880;-0.862;2023-07-29T10:09:26;5.90;;;1.75;;
72358;SDS011;60317;48.880;-0.862;2023-07-29T10:11:53;5.95;;;1.70;;
72358;SDS011;60317;48.880;-0.862;2023-07-29T10:14:20;4.40;;;1.50;;
72358;SDS011;60317;48.880;-0.862;2023-07-29T10:16:49;4.65;;;1.60;;
72358;SDS011;60317;48.880;-0.862;2023-07-29T10:19:16;5.72;;;2.00;;
72358;SDS011;60317;48.880;-0.862;2023-07-29T10:21:44;2.97;;;1.50;;
72358;SDS011;60317;48.880;-0.862;2023-07-29T10:24:15;4.80;;;1.73;;
72358;SDS011;60317;48.880;-0.862;2023-07-29T10:26:44;7.07;;;1.70;;
72358;SDS011;60317;48.880;-0.862;2023-07-29T10:29:13;3.92;;;1.50;;
72358;SDS011;60317;48.880;-0.862;2023-07-29T10:31:42;5.57;;;2.00;;
72358;SDS011;60317;48.880;-0.862;2023-07-29T10:34:11;3.40;;;1.83;;
72358;SDS011;60317;48.880;-0.862;2023-07-29T10:36:39;5.00;;;1.63;;
72358;SDS011;60317;48.880;-0.862;2023-07-29T10:39:07;5.28;;;1.70;;
72358;SDS011;60317;48.880;-0.862;2023-07-29T10:47:11;5.40;;;1.67;;
72358;SDS011;60317;48.880;-0.862;2023-07-29T10:49:41;4.82;;;1.75;;
72358;SDS011;60317;48.880;-0.862;2023-07-29T10:52:08;4.80;;;1.63;;
72358;SDS011;60317;48.880;-0.862;2023-07-29T10:54:41;5.40;;;1.50;;
72358;SDS011;60317;48.880;-0.862;2023-07-29T10:57:09;5.40;;;1.83;;
72358;SDS011;60317;48.880;-0.862;2023-07-29T10:59:39;5.15;;;1.60;;
72358;SDS011;60317;48.880;-0.862;2023-07-29T11:02:11;5.50;;;1.85;;
72358;SDS011;60317;48.880;-0.862;2023-07-29T11:04:50;4.90;;;1.60;;
72358;SDS011;60317;48.880;-0.862;2023-07-29T11:07:22;8.45;;;1.98;;
72358;SDS011;60317;48.880;-0.862;2023-07-29T11:09:53;3.38;;;1.70;;
72358;SDS011;60317;48.880;-0.862;2023-07-29T11:15:02;5.13;;;1.85;;
72358;SDS011;60317;48.880;-0.862;2023-07-29T11:17:30;5.35;;;1.83;;
72358;SDS011;60317;48.880;-0.862;2023-07-29T11:20:01;3.70;;;1.60;;
72358;SDS011;60317;48.880;-0.862;2023-07-29T11:22:29;6.85;;;1.98;;
72358;SDS011;60317;48.880;-0.862;2023-07-29T11:24:59;4.80;;;1.70;;
72358;SDS011;60317;48.880;-0.862;2023-07-29T11:27:26;5.90;;;2.00;;
72358;SDS011;60317;48.880;-0.862;2023-07-29T11:29:56;5.38;;;1.90;;
72358;SDS011;60317;48.880;-0.862;2023-07-29T11:32:23;7.45;;;1.80;;
72358;SDS011;60317;48.880;-0.862;2023-07-29T11:34:51;5.50;;;2.22;;
72358;SDS011;60317;48.880;-0.862;2023-07-29T11:37:19;6.55;;;1.70;;
72358;SDS011;60317;48.880;-0.862;2023-07-29T11:39:46;7.90;;;2.03;;
72358;SDS011;60317;48.880;-0.862;2023-07-29T11:42:12;7.43;;;2.10;;
72358;SDS011;60317;48.880;-0.862;2023-07-29T11:44:40;6.18;;;1.70;;
72358;SDS011;60317;48.880;-0.862;2023-07-29T11:47:07;5.55;;;2.00;;
72358;SDS011;60317;48.880;-0.862;2023-07-29T11:49:34;4.40;;;1.75;;
72358;SDS011;60317;48.880;-0.862;2023-07-29T11:52:01;4.35;;;1.65;;
72358;SDS011;60317;48.880;-0.862;2023-07-29T11:54:30;5.07;;;1.83;;
72358;SDS011;60317;48.880;-0.862;2023-07-29T11:56:56;5.95;;;1.88;;
72358;SDS011;60317;48.880;-0.862;2023-07-29T11:59:23;5.80;;;1.80;;
72358;SDS011;60317;48.880;-0.862;2023-07-29T12:01:50;5.80;;;1.70;;
72358;SDS011;60317;48.880;-0.862;2023-07-29T12:04:17;8.88;;;2.05;;
72358;SDS011;60317;48.880;-0.862;2023-07-29T12:06:44;4.93;;;1.88;;
72358;SDS011;60317;48.880;-0.862;2023-07-29T12:09:11;5.05;;;1.70;;
72358;SDS011;60317;48.880;-0.862;2023-07-29T12:11:39;4.38;;;1.55;;
72358;SDS011;60317;48.880;-0.862;2023-07-29T12:14:07;6.68;;;1.98;;
72358;SDS011;60317;48.880;-0.862;2023-07-29T12:16:39;4.93;;;1.60;;
72358;SDS011;60317;48.880;-0.862;2023-07-29T12:19:06;4.68;;;1.70;;
72358;SDS011;60317;48.880;-0.862;2023-07-29T12:21:33;6.80;;;1.73;;
72358;SDS011;60317;48.880;-0.862;2023-07-29T12:24:00;5.45;;;1.90;;
72358;SDS011;60317;48.880;-0.862;2023-07-29T12:26:28;3.90;;;1.50;;
72358;SDS011;60317;48.880;-0.862;2023-07-29T12:28:56;4.85;;;1.52;;
72358;SDS011;60317;48.880;-0.862;2023-07-29T12:31:28;3.22;;;1.67;;
72358;SDS011;60317;48.880;-0.862;2023-07-29T12:33:57;7.20;;;1.77;;
72358;SDS011;60317;48.880;-0.862;2023-07-29T12:36:27;4.10;;;1.63;;
72358;SDS011;60317;48.880;-0.862;2023-07-29T12:38:53;3.70;;;1.58;;
72358;SDS011;60317;48.880;-0.862;2023-07-29T12:41:25;3.65;;;1.45;;
72358;SDS011;60317;48.880;-0.862;2023-07-29T12:43:51;4.25;;;1.60;;
72358;SDS011;60317;48.880;-0.862;2023-07-29T12:46:19;6.82;;;1.83;;
72358;SDS011;60317;48.880;-0.862;2023-07-29T12:48:46;5.65;;;1.70;;
72358;SDS011;60317;48.880;-0.862;2023-07-29T12:51:12;2.75;;;1.55;;
72358;SDS011;60317;48.880;-0.862;2023-07-29T12:53:39;7.03;;;1.80;;
72358;SDS011;60317;48.880;-0.862;2023-07-29T12:56:05;4.97;;;1.90;;
72358;SDS011;60317;48.880;-0.862;2023-07-29T12:58:32;4.30;;;1.40;;
72358;SDS011;60317;48.880;-0.862;2023-07-29T13:00:59;3.90;;;1.70;;
72358;SDS011;60317;48.880;-0.862;2023-07-29T13:03:26;3.92;;;1.75;;
72358;SDS011;60317;48.880;-0.862;2023-07-29T13:05:53;3.92;;;1.63;;
72358;SDS011;60317;48.880;-0.862;2023-07-29T13:08:20;4.22;;;1.63;;
72358;SDS011;60317;48.880;-0.862;2023-07-29T13:10:46;3.67;;;1.60;;
72358;SDS011;60317;48.880;-0.862;2023-07-29T13:13:13;4.35;;;1.50;;
72358;SDS011;60317;48.880;-0.862;2023-07-29T13:15:39;5.78;;;1.67;;
72358;SDS011;60317;48.880;-0.862;2023-07-29T13:18:06;4.80;;;1.83;;
72358;SDS011;60317;48.880;-0.862;2023-07-29T13:20:34;4.55;;;1.60;;
72358;SDS011;60317;48.880;-0.862;2023-07-29T13:23:00;6.10;;;1.55;;
72358;SDS011;60317;48.880;-0.862;2023-07-29T13:25:27;4.82;;;1.80;;
72358;SDS011;60317;48.880;-0.862;2023-07-29T13:27:53;7.00;;;2.00;;
72358;SDS011;60317;48.880;-0.862;2023-07-29T13:30:20;4.63;;;1.45;;
72358;SDS011;60317;48.880;-0.862;2023-07-29T13:32:46;4.93;;;1.48;;
72358;SDS011;60317;48.880;-0.862;2023-07-29T13:35:13;4.75;;;1.70;;
72358;SDS011;60317;48.880;-0.862;2023-07-29T13:37:40;4.70;;;1.60;;
72358;SDS011;60317;48.880;-0.862;2023-07-29T13:40:07;4.35;;;1.55;;
72358;SDS011;60317;48.880;-0.862;2023-07-29T13:42:34;5.97;;;2.08;;
72358;SDS011;60317;48.880;-0.862;2023-07-29T13:45:01;6.03;;;1.67;;
72358;SDS011;60317;48.880;-0.862;2023-07-29T13:47:28;3.92;;;1.40;;
72358;SDS011;60317;48.880;-0.862;2023-07-29T13:49:54;5.30;;;1.70;;
72358;SDS011;60317;48.880;-0.862;2023-07-29T13:52:21;4.10;;;1.80;;
72358;SDS011;60317;48.880;-0.862;2023-07-29T13:54:49;4.30;;;1.58;;
72358;SDS011;60317;48.880;-0.862;2023-07-29T13:57:15;6.20;;;1.50;;
72358;SDS011;60317;48.880;-0.862;2023-07-29T13:59:42;3.60;;;1.73;;
72358;SDS011;60317;48.880;-0.862;2023-07-29T14:02:08;4.13;;;1.58;;
72358;SDS011;60317;48.880;-0.862;2023-07-29T14:04:35;4.53;;;1.80;;
72358;SDS011;60317;48.880;-0.862;2023-07-29T14:07:01;4.30;;;1.95;;
72358;SDS011;60317;48.880;-0.862;2023-07-29T14:09:29;2.85;;;1.55;;
72358;SDS011;60317;48.880;-0.862;2023-07-29T14:11:56;4.93;;;1.45;;
72358;SDS011;60317;48.880;-0.862;2023-07-29T14:14:23;4.72;;;1.90;;
72358;SDS011;60317;48.880;-0.862;2023-07-29T14:16:50;3.75;;;1.60;;
72358;SDS011;60317;48.880;-0.862;2023-07-29T14:19:16;6.85;;;1.48;;
72358;SDS011;60317;48.880;-0.862;2023-07-29T14:21:43;3.08;;;1.52;;
72358;SDS011;60317;48.880;-0.862;2023-07-29T14:24:09;3.05;;;1.60;;
72358;SDS011;60317;48.880;-0.862;2023-07-29T14:26:36;3.15;;;1.50;;
72358;SDS011;60317;48.880;-0.862;2023-07-29T14:29:04;4.53;;;1.83;;
72358;SDS011;60317;48.880;-0.862;2023-07-29T14:31:30;4.78;;;1.73;;
72358;SDS011;60317;48.880;-0.862;2023-07-29T14:33:57;4.32;;;1.83;;
72358;SDS011;60317;48.880;-0.862;2023-07-29T14:36:23;4.80;;;1.70;;
72358;SDS011;60317;48.880;-0.862;2023-07-29T14:38:53;3.08;;;1.58;;
72358;SDS011;60317;48.880;-0.862;2023-07-29T14:41:20;5.47;;;1.85;;
72358;SDS011;60317;48.880;-0.862;2023-07-29T14:43:46;5.35;;;2.00;;
72358;SDS011;60317;48.880;-0.862;2023-07-29T14:46:14;5.40;;;2.00;;